Time;durP1;ratioP1;P1;durP2;ratioP2;P2;SDS_P1;SDS_P2;PMS_P1;PMS_P2;Temp;Humidity;BMP_temperature;BMP_pressure;BME280_temperature;BME280_humidity;BME280_pressure;Samples;Min_cycle;Max_cycle;Signal;HPM_P1;HPM_P2
2023/11/17 00:00:51;;;;;;;3.85;3.40;;;7.90;99.90;;;;;;5033181;28;20236;-90
2023/11/17 00:03:17;;;;;;;4.28;3.60;;;8.00;99.90;;;;;;5035177;28;20569;-91
2023/11/17 00:05:43;;;;;;;3.47;3.17;;;8.40;99.90;;;;;;5033883;28;20224;-90
2023/11/17 00:08:08;;;;;;;3.80;3.03;;;8.20;99.90;;;;;;5034353;28;20205;-91
2023/11/17 00:10:34;;;;;;;3.50;3.20;;;8.00;99.90;;;;;;5034745;28;20684;-90
2023/11/17 00:13:00;;;;;;;2.80;2.60;;;7.90;99.90;;;;;;5029736;28;20198;-90
2023/11/17 00:15:25;;;;;;;3.70;2.67;;;7.90;99.90;;;;;;5033917;28;20188;-90
2023/11/17 00:17:52;;;;;;;3.27;2.70;;;8.00;99.90;;;;;;5034025;28;20180;-90
2023/11/17 00:20:19;;;;;;;2.30;2.10;;;7.70;99.90;;;;;;5033356;28;20182;-90
2023/11/17 00:22:47;;;;;;;2.30;2.10;;;7.50;99.90;;;;;;5033683;28;20190;-90
2023/11/17 00:25:14;;;;;;;3.28;2.92;;;7.30;99.90;;;;;;5034296;28;20213;-91
2023/11/17 00:27:40;;;;;;;2.80;2.60;;;;;;;;;;5045848;28;20184;-91
2023/11/17 00:30:07;;;;;;;3.35;1.88;;;7.40;99.90;;;;;;5034155;28;20203;-91
2023/11/17 00:32:33;;;;;;;2.05;1.95;;;7.60;99.90;;;;;;5032297;28;20185;-91
2023/11/17 00:34:59;;;;;;;2.17;2.00;;;7.40;99.90;;;;;;5033978;28;20221;-91
2023/11/17 00:37:25;;;;;;;2.17;1.73;;;7.50;99.90;;;;;;5033257;28;20240;-91
2023/11/17 00:39:50;;;;;;;2.28;1.80;;;7.70;99.90;;;;;;5034332;28;20440;-90
2023/11/17 00:42:16;;;;;;;2.00;1.80;;;7.50;99.90;;;;;;5034694;28;20201;-91
2023/11/17 00:44:41;;;;;;;1.60;1.50;;;7.90;99.90;;;;;;5035719;28;20452;-91
2023/11/17 00:47:07;;;;;;;1.60;1.50;;;7.60;99.90;;;;;;5034235;28;20657;-91
2023/11/17 00:49:32;;;;;;;1.60;1.50;;;7.70;99.90;;;;;;5032079;28;20221;-90
2023/11/17 00:51:58;;;;;;;2.27;1.87;;;7.60;99.90;;;;;;5036360;28;20276;-90
2023/11/17 00:54:27;;;;;;;1.63;1.53;;;7.60;99.90;;;;;;5032737;28;21014;-90
2023/11/17 00:56:56;;;;;;;1.90;1.80;;;7.70;99.90;;;;;;5033510;28;20601;-90
2023/11/17 00:59:22;;;;;;;1.60;1.50;;;7.50;99.90;;;;;;5031596;28;20280;-91
2023/11/17 01:01:48;;;;;;;1.60;1.50;;;7.60;99.90;;;;;;5033594;28;20273;-91
2023/11/17 01:04:15;;;;;;;1.40;1.30;;;7.80;99.90;;;;;;5033133;28;20464;-90
2023/11/17 01:06:41;;;;;;;2.13;1.60;;;7.60;99.90;;;;;;5045339;28;20203;-90
2023/11/17 01:09:06;;;;;;;1.40;1.30;;;7.40;99.90;;;;;;5040883;28;20185;-90
2023/11/17 01:11:32;;;;;;;1.30;1.20;;;7.30;99.90;;;;;;5033707;28;20511;-90
2023/11/17 01:13:57;;;;;;;1.70;1.57;;;7.60;99.90;;;;;;5048681;28;20201;-90
2023/11/17 01:16:23;;;;;;;1.50;1.40;;;7.50;99.90;;;;;;5034178;28;20249;-90
2023/11/17 01:18:50;;;;;;;1.73;1.63;;;7.60;99.90;;;;;;5033034;28;20186;-90
2023/11/17 01:21:15;;;;;;;2.00;1.40;;;7.60;99.90;;;;;;5032476;28;20462;-90
2023/11/17 01:23:41;;;;;;;1.50;1.33;;;7.40;99.90;;;;;;5031755;28;20247;-90
2023/11/17 01:26:06;;;;;;;1.57;1.47;;;7.00;99.90;;;;;;5035264;28;20174;-90
2023/11/17 01:28:32;;;;;;;1.20;1.10;;;7.40;99.90;;;;;;5032257;28;20558;-91
2023/11/17 01:30:57;;;;;;;1.60;1.50;;;7.50;99.90;;;;;;5035232;28;20716;-90
2023/11/17 01:33:23;;;;;;;1.50;1.30;;;7.60;99.90;;;;;;5032053;28;20210;-90
2023/11/17 01:35:49;;;;;;;1.30;1.20;;;7.40;99.90;;;;;;5032747;28;20189;-90
2023/11/17 01:38:15;;;;;;;2.40;1.95;;;7.70;99.90;;;;;;5049589;28;20193;-90
2023/11/17 01:40:40;;;;;;;2.17;1.57;;;7.50;99.90;;;;;;5052914;28;20484;-90
2023/11/17 01:43:06;;;;;;;1.90;1.80;;;8.10;99.90;;;;;;5031513;28;20201;-89
2023/11/17 01:45:35;;;;;;;1.60;1.50;;;7.40;99.90;;;;;;5033687;28;20181;-90
2023/11/17 01:48:01;;;;;;;1.73;1.50;;;7.60;99.90;;;;;;5050835;28;20450;-90
2023/11/17 01:50:28;;;;;;;1.80;1.40;;;8.00;99.90;;;;;;5032596;28;20728;-91
2023/11/17 01:52:55;;;;;;;1.67;1.58;;;7.50;99.90;;;;;;5032305;28;20274;-88
2023/11/17 01:55:21;;;;;;;2.08;1.90;;;7.60;99.90;;;;;;5033685;28;20186;-89
2023/11/17 01:57:48;;;;;;;4.50;2.67;;;7.90;99.90;;;;;;5029810;28;20224;-90
2023/11/17 02:00:14;;;;;;;1.63;1.52;;;7.70;99.90;;;;;;5032639;28;20272;-89
2023/11/17 02:02:48;;;;;;;2.03;1.30;;;7.60;99.90;;;;;;5049639;28;20186;-89
2023/11/17 02:05:18;;;;;;;2.20;2.00;;;7.80;99.90;;;;;;5032787;28;20219;-89
2023/11/17 02:08:08;;;;;;;2.72;2.50;;;7.60;99.90;;;;;;5033452;28;20196;-89
2023/11/17 02:10:45;;;;;;;2.03;1.90;;;7.40;99.90;;;;;;5031585;28;20193;-89
2023/11/17 02:13:24;;;;;;;2.33;1.77;;;7.60;99.90;;;;;;5030868;28;20193;-89
2023/11/17 02:15:52;;;;;;;1.95;1.85;;;7.40;99.90;;;;;;5030415;28;20189;-89
2023/11/17 02:18:22;;;;;;;2.60;2.40;;;7.30;99.90;;;;;;5031809;28;20516;-89
2023/11/17 02:20:52;;;;;;;2.83;2.10;;;7.50;99.90;;;;;;5034767;28;20186;-89
2023/11/17 02:23:19;;;;;;;2.42;2.22;;;7.50;99.90;;;;;;5033191;28;20212;-88
2023/11/17 02:26:36;;;;;;;4.65;2.10;;;7.40;99.90;;;;;;5037014;28;20185;-89
2023/11/17 02:29:37;;;;;;;2.88;2.67;;;7.40;99.90;;;;;;4915513;29;20567;-89
2023/11/17 02:32:04;;;;;;;2.28;2.08;;;7.50;99.90;;;;;;5033228;28;20174;-89
2023/11/17 02:34:30;;;;;;;2.40;2.20;;;7.40;99.90;;;;;;5029367;28;20240;-90
2023/11/17 02:36:59;;;;;;;3.38;3.10;;;7.90;99.90;;;;;;5032801;28;20193;-89
2023/11/17 02:39:25;;;;;;;3.17;2.88;;;7.50;99.90;;;;;;5034807;28;20185;-89
2023/11/17 02:41:58;;;;;;;3.00;2.67;;;7.50;99.90;;;;;;5035130;28;20186;-87
2023/11/17 02:44:28;;;;;;;4.28;3.20;;;7.40;99.90;;;;;;5029116;28;20717;-88
2023/11/17 02:47:00;;;;;;;5.90;4.10;;;7.70;99.90;;;;;;5013508;28;20209;-89
2023/11/17 02:49:34;;;;;;;4.20;3.50;;;7.50;99.90;;;;;;5034198;28;20189;-89
2023/11/17 02:52:11;;;;;;;4.22;3.63;;;7.50;99.90;;;;;;5037523;28;20177;-88
2023/11/17 02:54:37;;;;;;;5.30;3.97;;;7.40;99.90;;;;;;5035116;28;20207;-88
2023/11/17 02:57:05;;;;;;;4.03;3.20;;;7.80;99.90;;;;;;5034918;28;20213;-88
2023/11/17 02:59:35;;;;;;;7.05;3.63;;;7.70;99.90;;;;;;5034188;28;20463;-89
2023/11/17 03:02:02;;;;;;;3.90;3.35;;;7.70;99.90;;;;;;5031488;28;20193;-88
2023/11/17 03:04:28;;;;;;;4.28;3.30;;;7.80;99.90;;;;;;5033882;28;20592;-88
2023/11/17 03:06:53;;;;;;;5.30;4.17;;;7.60;99.90;;;;;;5031133;28;20174;-88
2023/11/17 03:09:22;;;;;;;5.07;3.50;;;7.70;99.90;;;;;;5033867;28;20177;-88
2023/11/17 03:11:52;;;;;;;4.28;3.78;;;7.70;99.90;;;;;;5029020;28;20260;-88
2023/11/17 03:14:19;;;;;;;3.22;2.70;;;8.10;99.90;;;;;;5028343;28;20208;-89
2023/11/17 03:16:51;;;;;;;4.50;3.17;;;7.80;99.90;;;;;;5031890;28;20186;-88
2023/11/17 03:19:16;;;;;;;4.05;2.90;;;7.80;99.90;;;;;;5029280;28;20193;-89
2023/11/17 03:21:44;;;;;;;4.10;3.13;;;7.70;99.90;;;;;;5042121;28;20194;-88
2023/11/17 03:24:17;;;;;;;2.50;2.30;;;7.80;99.90;;;;;;5054300;28;20492;-89
2023/11/17 03:26:43;;;;;;;3.08;2.80;;;7.70;99.90;;;;;;5039184;28;20193;-87
2023/11/17 03:29:11;;;;;;;3.10;2.80;;;7.60;99.90;;;;;;5038445;28;20665;-89
2023/11/17 03:31:37;;;;;;;2.70;2.20;;;7.60;99.90;;;;;;5037422;28;20231;-89
2023/11/17 03:34:02;;;;;;;2.20;2.00;;;7.50;99.90;;;;;;5038425;28;20201;-89
2023/11/17 03:36:28;;;;;;;2.33;2.13;;;7.60;99.90;;;;;;5042034;28;20194;-90
2023/11/17 03:38:56;;;;;;;2.13;1.90;;;7.40;99.90;;;;;;5041572;28;20185;-90
2023/11/17 03:41:22;;;;;;;6.43;2.20;;;8.10;99.90;;;;;;5038046;28;20228;-90
2023/11/17 03:43:49;;;;;;;2.55;2.13;;;7.60;99.90;;;;;;5039921;28;20205;-87
2023/11/17 03:46:14;;;;;;;1.70;1.60;;;7.40;99.90;;;;;;5036164;28;20185;-88
2023/11/17 03:48:40;;;;;;;2.57;1.90;;;7.60;99.90;;;;;;5038250;28;20182;-88
2023/11/17 03:51:06;;;;;;;1.50;1.40;;;7.90;99.90;;;;;;5039325;28;20414;-88
2023/11/17 03:53:36;;;;;;;1.85;1.75;;;8.20;99.90;;;;;;5034571;28;20201;-88
2023/11/17 03:56:02;;;;;;;2.55;1.63;;;7.80;99.90;;;;;;5039488;28;20193;-88
2023/11/17 03:58:28;;;;;;;2.55;1.83;;;7.50;99.90;;;;;;5038856;28;20193;-88
2023/11/17 04:00:54;;;;;;;1.50;1.40;;;7.80;99.90;;;;;;5040676;28;20558;-88
2023/11/17 04:03:20;;;;;;;3.33;1.63;;;7.70;99.90;;;;;;5038148;28;20228;-88
2023/11/17 04:05:46;;;;;;;1.90;1.53;;;7.70;99.90;;;;;;5037728;28;20181;-89
2023/11/17 04:08:16;;;;;;;1.50;1.27;;;8.10;99.90;;;;;;5036670;28;20181;-89
2023/11/17 04:10:45;;;;;;;1.50;1.40;;;7.80;99.90;;;;;;5035166;28;20269;-89
2023/11/17 04:13:11;;;;;;;1.38;1.27;;;7.70;99.90;;;;;;5036751;28;20197;-89
2023/11/17 04:15:37;;;;;;;1.50;1.40;;;7.50;99.90;;;;;;5036318;28;20177;-89
2023/11/17 04:18:03;;;;;;;1.80;1.70;;;8.00;99.90;;;;;;5038628;28;20246;-88
2023/11/17 04:20:28;;;;;;;1.83;1.50;;;7.90;99.90;;;;;;5036814;28;20238;-89
2023/11/17 04:22:54;;;;;;;1.70;1.60;;;7.30;99.90;;;;;;5036296;28;20182;-89
2023/11/17 04:25:19;;;;;;;1.67;1.57;;;7.40;99.90;;;;;;5032831;28;20570;-88
2023/11/17 04:27:45;;;;;;;2.07;1.77;;;7.80;99.90;;;;;;5035067;28;20186;-89
2023/11/17 04:30:11;;;;;;;2.37;2.10;;;7.50;99.90;;;;;;5037208;28;20284;-89
2023/11/17 04:32:36;;;;;;;2.22;1.75;;;7.40;99.90;;;;;;5035939;28;20182;-89
2023/11/17 04:35:03;;;;;;;2.10;1.73;;;7.70;99.90;;;;;;5037139;28;20276;-89
2023/11/17 04:37:29;;;;;;;3.78;1.80;;;7.40;99.90;;;;;;5036437;28;21062;-89
2023/11/17 04:39:55;;;;;;;1.80;1.70;;;7.30;99.90;;;;;;5036072;28;20276;-89
2023/11/17 04:42:21;;;;;;;2.45;1.75;;;7.50;99.90;;;;;;5036099;28;20638;-89
2023/11/17 04:44:47;;;;;;;2.63;2.43;;;7.20;99.90;;;;;;5036572;28;20267;-89
2023/11/17 04:47:14;;;;;;;3.47;2.07;;;7.30;99.90;;;;;;5032889;28;20295;-89
2023/11/17 04:49:40;;;;;;;1.90;1.80;;;7.80;99.90;;;;;;5035913;28;20988;-89
2023/11/17 04:52:05;;;;;;;2.10;2.00;;;7.50;99.90;;;;;;5037755;28;20182;-89
2023/11/17 04:54:31;;;;;;;2.53;1.90;;;7.70;99.90;;;;;;5057034;28;20210;-89
2023/11/17 04:56:56;;;;;;;2.33;2.13;;;7.50;99.90;;;;;;5046993;28;20656;-88
2023/11/17 04:59:22;;;;;;;1.93;1.63;;;8.00;99.90;;;;;;5051703;28;20189;-87
2023/11/17 05:01:48;;;;;;;2.07;1.67;;;8.00;99.90;;;;;;5047437;28;20181;-88
2023/11/17 05:04:13;;;;;;;1.70;1.57;;;7.70;99.90;;;;;;5037005;28;20217;-88
2023/11/17 05:06:39;;;;;;;2.03;1.87;;;7.60;99.90;;;;;;5036999;28;20181;-89
2023/11/17 05:09:12;;;;;;;2.80;2.20;;;8.00;99.90;;;;;;5038763;28;20254;-90
2023/11/17 05:11:38;;;;;;;1.83;1.73;;;8.00;99.90;;;;;;5033241;28;20459;-89
2023/11/17 05:14:05;;;;;;;3.28;1.85;;;7.50;99.90;;;;;;5035749;28;20197;-89
2023/11/17 05:16:34;;;;;;;3.83;1.98;;;7.40;99.90;;;;;;5039951;28;20571;-88
2023/11/17 05:19:00;;;;;;;2.58;1.65;;;7.40;99.90;;;;;;5034661;28;20208;-88
2023/11/17 05:21:26;;;;;;;3.07;1.87;;;7.40;99.90;;;;;;5019260;28;20198;-89
2023/11/17 05:23:51;;;;;;;2.07;1.83;;;7.80;99.90;;;;;;5035214;28;20442;-89
2023/11/17 05:26:17;;;;;;;1.53;1.43;;;7.60;99.90;;;;;;5037724;28;20182;-88
2023/11/17 05:28:42;;;;;;;1.70;1.50;;;7.50;99.90;;;;;;5032784;28;20300;-89
2023/11/17 05:31:08;;;;;;;1.73;1.63;;;7.60;99.90;;;;;;5031977;28;20207;-89
2023/11/17 05:33:33;;;;;;;1.73;1.60;;;7.60;99.90;;;;;;5035286;28;20575;-89
2023/11/17 05:35:59;;;;;;;1.83;1.73;;;7.60;99.90;;;;;;5037130;28;20267;-86
2023/11/17 05:38:26;;;;;;;2.93;1.80;;;7.30;99.90;;;;;;5031172;28;20678;-89
2023/11/17 05:40:52;;;;;;;3.00;2.15;;;7.70;99.90;;;;;;5048346;28;20182;-89
2023/11/17 05:43:17;;;;;;;1.50;1.40;;;7.50;99.90;;;;;;5034308;28;20719;-89
2023/11/17 05:45:43;;;;;;;1.97;1.77;;;7.50;99.90;;;;;;5036046;28;20655;-89
2023/11/17 05:48:10;;;;;;;4.60;3.50;;;8.50;99.90;;;;;;5050678;28;20177;-89
2023/11/17 05:50:36;;;;;;;3.28;2.15;;;7.90;99.90;;;;;;5046790;28;20643;-89
2023/11/17 05:53:02;;;;;;;2.55;1.40;;;7.20;99.90;;;;;;5035790;28;20197;-90
2023/11/17 05:55:28;;;;;;;3.13;1.47;;;7.50;99.90;;;;;;5037828;28;20197;-89
2023/11/17 05:57:54;;;;;;;2.95;1.98;;;7.40;99.90;;;;;;5041238;28;20193;-89
2023/11/17 06:00:20;;;;;;;2.30;1.70;;;7.30;99.90;;;;;;5037266;28;20178;-89
2023/11/17 06:02:45;;;;;;;2.90;2.20;;;7.60;99.90;;;;;;5036224;28;20629;-90
2023/11/17 06:05:13;;;;;;;3.10;2.57;;;7.30;99.90;;;;;;5032683;28;20861;-89
2023/11/17 06:07:39;;;;;;;2.75;2.03;;;7.50;99.90;;;;;;5035296;28;20426;-90
2023/11/17 06:10:05;;;;;;;2.57;2.00;;;8.10;99.90;;;;;;5038154;28;20178;-90
2023/11/17 06:12:33;;;;;;;2.15;1.85;;;7.70;99.90;;;;;;5037878;28;20516;-90
2023/11/17 06:14:59;;;;;;;2.15;1.65;;;7.40;99.90;;;;;;5035356;28;20227;-89
2023/11/17 06:17:25;;;;;;;1.70;1.50;;;8.00;99.90;;;;;;5036441;28;20761;-90
2023/11/17 06:19:51;;;;;;;1.75;1.65;;;8.00;99.90;;;;;;5037375;28;20217;-90
2023/11/17 06:22:17;;;;;;;2.10;1.90;;;7.70;99.90;;;;;;5037215;28;20189;-89
2023/11/17 06:24:42;;;;;;;4.73;4.33;;;7.70;99.90;;;;;;5039107;28;20217;-91
2023/11/17 06:27:10;;;;;;;2.90;2.20;;;7.50;99.90;;;;;;5037805;28;20185;-89
2023/11/17 06:29:36;;;;;;;4.18;2.70;;;7.90;99.90;;;;;;5034926;28;20315;-89
2023/11/17 06:32:04;;;;;;;3.47;2.30;;;7.60;99.90;;;;;;5036638;28;20326;-90
2023/11/17 06:34:29;;;;;;;3.00;1.90;;;7.50;99.90;;;;;;5018358;28;20206;-89
2023/11/17 06:36:56;;;;;;;2.40;2.20;;;7.60;99.90;;;;;;5030015;28;20200;-90
2023/11/17 06:39:23;;;;;;;2.90;2.08;;;7.80;99.90;;;;;;5041489;28;20185;-90
2023/11/17 06:41:50;;;;;;;3.05;2.72;;;7.70;99.90;;;;;;5035389;28;20225;-90
2023/11/17 06:44:18;;;;;;;3.45;3.05;;;7.30;99.90;;;;;;5032662;28;20229;-90
2023/11/17 06:46:51;;;;;;;4.15;2.50;;;7.50;99.90;;;;;;5033959;28;20634;-86
2023/11/17 06:49:22;;;;;;;2.30;2.10;;;7.20;99.90;;;;;;5038107;28;20388;-88
2023/11/17 06:51:50;;;;;;;2.30;2.10;;;7.30;99.90;;;;;;5037635;28;20214;-86
2023/11/17 06:54:18;;;;;;;4.68;2.22;;;7.50;99.90;;;;;;5042464;28;20210;-88
2023/11/17 06:56:47;;;;;;;3.85;3.38;;;7.40;99.90;;;;;;5034098;28;20217;-88
2023/11/17 06:59:17;;;;;;;3.53;3.03;;;7.60;99.90;;;;;;5044188;28;20195;-83
2023/11/17 07:01:43;;;;;;;3.13;2.30;;;7.30;99.90;;;;;;5046841;28;20229;-84
2023/11/17 07:04:12;;;;;;;2.30;2.10;;;7.90;99.90;;;;;;5054057;28;20283;-84
2023/11/17 07:06:39;;;;;;;4.53;4.13;;;7.80;99.90;;;;;;5038676;28;20250;-84
2023/11/17 07:09:17;;;;;;;5.97;2.53;;;7.40;99.90;;;;;;5037137;28;20661;-84
2023/11/17 07:11:47;;;;;;;3.97;2.90;;;7.70;99.90;;;;;;5036767;28;20203;-85
2023/11/17 07:14:13;;;;;;;4.88;2.63;;;6.90;99.90;;;;;;5034284;28;20208;-84
2023/11/17 07:16:41;;;;;;;4.25;2.65;;;7.90;99.90;;;;;;5037560;28;20203;-84
2023/11/17 07:19:10;;;;;;;4.72;2.97;;;7.80;99.90;;;;;;5040684;28;20239;-86
2023/11/17 07:21:37;;;;;;;3.35;2.50;;;7.50;99.90;;;;;;5049008;28;20189;-85
2023/11/17 07:24:06;;;;;;;3.38;2.75;;;7.90;99.90;;;;;;5033976;28;20576;-82
2023/11/17 07:26:35;;;;;;;3.78;2.80;;;7.70;99.90;;;;;;5032093;28;20227;-82
2023/11/17 07:29:01;;;;;;;3.55;2.78;;;7.70;99.90;;;;;;5052445;28;20249;-82
2023/11/17 07:31:27;;;;;;;3.93;2.63;;;8.10;99.90;;;;;;5034678;28;20229;-85
2023/11/17 07:33:54;;;;;;;5.50;2.80;;;8.00;99.90;;;;;;5040103;28;20627;-84
2023/11/17 07:36:19;;;;;;;5.15;3.08;;;8.10;99.90;;;;;;5038470;28;20271;-84
2023/11/17 07:38:51;;;;;;;4.47;3.53;;;8.20;99.90;;;;;;5054804;28;20201;-87
2023/11/17 07:41:19;;;;;;;2.95;2.60;;;8.40;99.90;;;;;;5048742;28;20427;-87
2023/11/17 07:43:45;;;;;;;2.42;2.22;;;7.90;99.90;;;;;;5031345;28;20760;-86
2023/11/17 07:46:11;;;;;;;2.80;2.20;;;8.10;99.90;;;;;;5033058;28;20588;-87
2023/11/17 07:48:37;;;;;;;3.15;2.20;;;7.70;99.90;;;;;;5033511;28;20178;-84
2023/11/17 07:51:03;;;;;;;2.33;1.97;;;7.60;99.90;;;;;;5048731;28;20197;-90
2023/11/17 07:53:29;;;;;;;2.80;2.50;;;7.60;99.90;;;;;;5033936;28;20217;-87
2023/11/17 07:55:54;;;;;;;2.50;2.30;;;8.10;99.90;;;;;;5050731;28;20423;-87
2023/11/17 07:58:20;;;;;;;1.70;1.60;;;7.70;99.90;;;;;;5031177;28;20540;-86
2023/11/17 08:00:53;;;;;;;2.63;2.43;;;8.30;99.90;;;;;;5016931;28;20239;-88
2023/11/17 08:03:19;;;;;;;2.63;2.42;;;7.90;99.90;;;;;;5035034;28;20523;-89
2023/11/17 08:05:44;;;;;;;5.32;3.40;;;8.00;99.90;;;;;;5049012;28;20315;-91
2023/11/17 08:08:10;;;;;;;3.23;2.93;;;8.10;99.90;;;;;;5045299;28;20201;-91
2023/11/17 08:10:37;;;;;;;6.82;3.28;;;7.90;99.90;;;;;;5038346;28;20235;-91
2023/11/17 08:13:03;;;;;;;3.03;2.50;;;8.50;99.90;;;;;;5034373;28;20202;-89
2023/11/17 08:15:30;;;;;;;3.22;2.72;;;8.10;99.90;;;;;;5038258;28;20548;-89
2023/11/17 08:17:55;;;;;;;3.85;2.47;;;8.00;99.90;;;;;;5039449;28;20189;-90
2023/11/17 08:20:22;;;;;;;2.37;2.10;;;8.30;99.90;;;;;;5043005;28;20272;-91
2023/11/17 08:22:48;;;;;;;3.08;2.45;;;8.30;99.90;;;;;;5038763;28;20603;-89
2023/11/17 08:25:14;;;;;;;2.17;1.98;;;8.10;99.90;;;;;;5040828;28;20202;-87
2023/11/17 08:27:41;;;;;;;4.25;2.10;;;8.20;99.90;;;;;;5037285;28;20193;-87
2023/11/17 08:30:07;;;;;;;3.95;2.05;;;8.10;99.90;;;;;;5038972;28;20184;-86
2023/11/17 08:32:43;;;;;;;2.75;2.10;;;8.20;99.90;;;;;;5032121;28;20184;-86
2023/11/17 08:35:09;;;;;;;3.53;2.47;;;8.20;99.90;;;;;;5038160;28;20177;-87
2023/11/17 08:37:35;;;;;;;4.47;2.20;;;8.20;99.90;;;;;;5036911;28;20189;-87
2023/11/17 08:40:08;;;;;;;2.33;2.13;;;8.30;99.90;;;;;;5038805;28;20542;-88
2023/11/17 08:42:37;;;;;;;3.05;2.70;;;8.80;99.90;;;;;;5037791;28;20178;-88
2023/11/17 08:45:09;;;;;;;5.45;2.15;;;8.50;99.90;;;;;;5039260;28;20295;-88
2023/11/17 08:47:39;;;;;;;2.40;2.20;;;8.70;99.90;;;;;;5038415;28;20614;-90
2023/11/17 08:50:07;;;;;;;3.00;2.20;;;8.90;99.90;;;;;;5038259;28;20174;-89
2023/11/17 08:52:34;;;;;;;3.80;2.70;;;8.80;99.90;;;;;;5016402;28;20461;-90
2023/11/17 08:55:04;;;;;;;2.60;2.03;;;8.70;99.90;;;;;;5048627;28;20612;-90
2023/11/17 08:57:32;;;;;;;2.83;2.63;;;8.70;99.90;;;;;;5035902;28;20198;-90
2023/11/17 08:59:59;;;;;;;3.03;2.58;;;8.80;99.90;;;;;;5034066;28;20219;-89
2023/11/17 09:02:25;;;;;;;4.25;2.33;;;8.80;99.90;;;;;;5032666;28;20619;-89
2023/11/17 09:04:52;;;;;;;2.33;2.13;;;8.50;99.90;;;;;;5032357;28;20259;-89
2023/11/17 09:07:18;;;;;;;3.53;2.17;;;9.20;99.90;;;;;;5031455;28;20196;-88
2023/11/17 09:09:43;;;;;;;3.63;1.80;;;8.60;99.90;;;;;;5033307;28;20315;-90
2023/11/17 09:12:09;;;;;;;2.57;2.37;;;8.80;99.90;;;;;;5033311;28;20436;-89
2023/11/17 09:14:36;;;;;;;2.00;1.60;;;8.50;99.90;;;;;;5033446;28;20205;-89
2023/11/17 09:17:06;;;;;;;3.67;1.98;;;8.80;99.90;;;;;;5035327;28;20449;-89
2023/11/17 09:19:40;;;;;;;1.40;1.30;;;8.60;99.90;;;;;;5038894;28;20196;-89
2023/11/17 09:22:06;;;;;;;1.50;1.40;;;8.60;99.90;;;;;;5033277;28;20228;-89
2023/11/17 09:24:31;;;;;;;2.07;1.63;;;8.30;99.90;;;;;;5034452;28;20233;-89
2023/11/17 09:26:57;;;;;;;3.63;2.00;;;8.80;99.90;;;;;;5032179;28;20182;-89
2023/11/17 09:29:23;;;;;;;1.40;1.30;;;8.70;99.90;;;;;;5032583;28;20181;-89
2023/11/17 09:31:49;;;;;;;2.28;1.67;;;9.10;99.90;;;;;;5035103;28;20288;-89
2023/11/17 09:34:16;;;;;;;1.40;1.30;;;8.70;99.90;;;;;;5035729;28;20205;-89
2023/11/17 09:36:42;;;;;;;4.43;2.25;;;8.80;99.90;;;;;;5036915;28;20241;-91
2023/11/17 09:39:09;;;;;;;1.67;1.30;;;9.00;99.90;;;;;;5035496;28;20186;-91
2023/11/17 09:41:38;;;;;;;1.60;1.10;;;8.60;99.90;;;;;;5048734;28;20205;-90
2023/11/17 09:44:05;;;;;;;1.30;1.05;;;9.20;99.90;;;;;;5036662;28;20217;-90
2023/11/17 09:46:36;;;;;;;3.13;1.70;;;9.00;99.90;;;;;;5037256;28;20178;-89
2023/11/17 09:49:05;;;;;;;1.55;1.25;;;9.10;99.90;;;;;;5032048;28;20277;-92
2023/11/17 09:51:32;;;;;;;1.65;1.25;;;9.20;99.90;;;;;;5034325;28;20193;-89
2023/11/17 09:53:59;;;;;;;1.50;1.40;;;9.60;99.90;;;;;;5036274;28;20205;-89
2023/11/17 09:56:28;;;;;;;1.55;1.27;;;9.30;99.90;;;;;;5036734;28;20623;-89
2023/11/17 09:58:57;;;;;;;1.23;1.10;;;9.00;99.90;;;;;;5030923;28;20244;-89
2023/11/17 10:01:27;;;;;;;2.15;1.30;;;9.20;99.90;;;;;;5036684;28;20190;-91
2023/11/17 10:03:57;;;;;;;1.20;1.10;;;9.60;99.90;;;;;;5033821;28;20216;-91
2023/11/17 10:06:24;;;;;;;4.85;1.70;;;9.60;99.90;;;;;;5034296;28;20545;-91
2023/11/17 10:08:50;;;;;;;1.40;1.30;;;9.30;99.90;;;;;;5036190;28;20635;-89
2023/11/17 10:11:17;;;;;;;5.47;2.30;;;9.50;99.90;;;;;;5043247;28;20185;-89
2023/11/17 10:13:44;;;;;;;2.17;1.40;;;9.20;99.90;;;;;;5033940;28;20645;-89
2023/11/17 10:16:11;;;;;;;1.30;1.20;;;9.30;99.90;;;;;;5034342;28;20177;-89
2023/11/17 10:18:40;;;;;;;3.97;1.60;;;9.30;99.90;;;;;;5033737;28;20209;-89
2023/11/17 10:21:06;;;;;;;2.17;1.10;;;9.60;99.90;;;;;;5035856;28;20185;-90
2023/11/17 10:23:32;;;;;;;2.50;1.30;;;9.50;99.90;;;;;;5038409;28;20208;-91
2023/11/17 10:25:58;;;;;;;1.42;1.02;;;9.50;99.90;;;;;;5033199;28;20489;-89
2023/11/17 10:28:26;;;;;;;1.77;1.10;;;9.40;99.90;;;;;;5033747;28;20178;-91
2023/11/17 10:30:54;;;;;;;2.35;1.42;;;9.00;99.90;;;;;;5023114;28;20261;-90
2023/11/17 10:33:33;;;;;;;2.35;1.92;;;9.20;99.90;;;;;;5041408;28;20213;-87
2023/11/17 10:36:10;;;;;;;2.00;1.52;;;9.40;99.90;;;;;;5034995;28;20185;-88
2023/11/17 10:38:46;;;;;;;1.58;1.33;;;9.30;99.90;;;;;;5039969;28;20212;-89
2023/11/17 10:41:26;;;;;;;1.88;1.30;;;9.60;99.90;;;;;;5032636;28;20194;-87
2023/11/17 10:43:58;;;;;;;1.85;1.23;;;9.40;99.90;;;;;;5032676;28;20693;-88
2023/11/17 10:46:28;;;;;;;2.40;1.20;;;9.60;99.90;;;;;;5032832;28;20234;-88
2023/11/17 10:48:58;;;;;;;1.40;1.00;;;9.40;99.90;;;;;;5031810;28;20189;-88
2023/11/17 10:51:24;;;;;;;1.27;0.90;;;9.50;99.90;;;;;;5035627;28;20593;-88
2023/11/17 10:54:06;;;;;;;1.60;1.50;;;9.50;99.90;;;;;;5030479;28;20734;-85
2023/11/17 10:56:33;;;;;;;1.30;1.20;;;9.50;99.90;;;;;;5035160;28;20410;-86
2023/11/17 10:58:59;;;;;;;1.23;0.98;;;9.60;99.90;;;;;;5034822;28;20205;-86
2023/11/17 11:01:31;;;;;;;1.50;1.02;;;9.60;99.90;;;;;;5036875;28;20208;-85
2023/11/17 11:03:58;;;;;;;2.03;1.50;;;9.40;99.90;;;;;;5033810;28;20210;-85
2023/11/17 11:06:25;;;;;;;1.58;1.20;;;10.00;99.90;;;;;;5040601;28;20192;-84
2023/11/17 11:08:56;;;;;;;1.20;1.10;;;9.70;99.90;;;;;;5034728;28;20595;-87
2023/11/17 11:11:26;;;;;;;1.60;1.40;;;10.00;99.90;;;;;;5035117;28;20663;-87
2023/11/17 11:14:01;;;;;;;1.35;1.25;;;9.90;99.90;;;;;;5040280;28;20213;-85
2023/11/17 11:16:32;;;;;;;2.33;0.93;;;9.90;99.90;;;;;;5044813;28;20574;-84
2023/11/17 11:18:59;;;;;;;1.25;1.15;;;10.20;99.90;;;;;;5040454;28;20182;-85
2023/11/17 11:21:29;;;;;;;1.10;1.00;;;9.90;99.90;;;;;;5033828;28;20273;-87
2023/11/17 11:24:00;;;;;;;1.88;1.30;;;10.00;99.90;;;;;;5055111;28;20280;-87
2023/11/17 11:26:30;;;;;;;0.90;0.90;;;9.90;99.90;;;;;;5039972;28;20178;-86
2023/11/17 11:28:57;;;;;;;1.00;0.88;;;10.00;99.90;;;;;;5040781;28;20265;-86
2023/11/17 11:31:24;;;;;;;1.65;0.93;;;9.70;99.90;;;;;;5037670;28;20967;-88
2023/11/17 11:33:50;;;;;;;1.08;0.88;;;9.70;99.90;;;;;;5034786;28;20232;-83
2023/11/17 11:36:16;;;;;;;1.25;1.00;;;10.30;99.90;;;;;;5033253;28;20190;-84
2023/11/17 11:38:47;;;;;;;1.17;1.02;;;10.00;99.90;;;;;;5033576;28;20276;-83
2023/11/17 11:41:15;;;;;;;1.05;0.95;;;10.30;99.90;;;;;;5050908;28;20198;-84
2023/11/17 11:43:45;;;;;;;1.25;0.90;;;9.80;99.90;;;;;;5034345;28;20218;-84
2023/11/17 11:46:16;;;;;;;1.50;0.95;;;10.00;99.90;;;;;;5031221;28;20179;-84
2023/11/17 11:48:44;;;;;;;1.15;1.02;;;10.00;99.90;;;;;;5036321;28;20245;-84
2023/11/17 11:51:11;;;;;;;1.30;1.10;;;10.30;99.90;;;;;;5038784;28;20289;-82
2023/11/17 11:53:47;;;;;;;1.30;1.20;;;9.90;99.90;;;;;;5038155;28;20202;-84
2023/11/17 11:56:18;;;;;;;1.90;1.35;;;9.90;99.90;;;;;;5033412;28;20181;-84
2023/11/17 11:58:48;;;;;;;1.15;1.05;;;9.60;99.90;;;;;;5037604;28;20189;-83
2023/11/17 12:01:18;;;;;;;1.77;1.25;;;9.30;99.90;;;;;;5033556;28;20186;-84
2023/11/17 12:03:50;;;;;;;2.60;1.10;;;10.00;99.90;;;;;;5056378;28;20207;-84
2023/11/17 12:06:23;;;;;;;1.67;1.20;;;10.20;99.90;;;;;;5036950;28;20182;-83
2023/11/17 12:08:55;;;;;;;1.15;1.05;;;9.80;99.90;;;;;;5039291;28;20185;-83
2023/11/17 12:11:22;;;;;;;1.00;0.90;;;9.90;99.90;;;;;;5034156;28;20275;-88
2023/11/17 12:13:49;;;;;;;1.27;1.10;;;9.60;99.90;;;;;;5039014;28;20638;-88
2023/11/17 12:16:49;;;;;;;1.33;0.90;;;9.80;99.90;;;;;;5035955;28;20232;-87
2023/11/17 12:19:16;;;;;;;1.02;0.88;;;9.60;99.90;;;;;;5033877;28;20186;-88
2023/11/17 12:21:48;;;;;;;1.65;1.10;;;9.70;99.90;;;;;;5033418;28;20185;-89
2023/11/17 12:24:15;;;;;;;1.20;1.10;;;9.50;99.90;;;;;;5036888;28;20787;-88
2023/11/17 12:26:42;;;;;;;1.90;1.63;;;9.60;99.90;;;;;;5040480;28;20187;-86
2023/11/17 12:29:11;;;;;;;3.25;2.95;;;9.90;99.90;;;;;;5039370;28;20190;-87
2023/11/17 12:31:38;;;;;;;3.30;2.80;;;10.10;99.90;;;;;;5020930;28;20655;-87
2023/11/17 12:34:05;;;;;;;1.08;0.98;;;10.00;99.90;;;;;;5039643;28;20249;-86
2023/11/17 12:36:31;;;;;;;1.70;1.60;;;10.20;99.90;;;;;;5037768;28;20281;-88
2023/11/17 12:38:59;;;;;;;2.60;1.20;;;10.20;99.90;;;;;;5035241;28;20197;-88
2023/11/17 12:41:26;;;;;;;0.90;0.90;;;9.70;99.90;;;;;;5038779;28;20183;-88
2023/11/17 12:43:57;;;;;;;1.08;0.82;;;10.40;99.90;;;;;;5032613;28;20220;-87
2023/11/17 12:46:27;;;;;;;0.70;0.70;;;9.90;99.90;;;;;;5039139;28;20175;-84
2023/11/17 12:48:53;;;;;;;2.10;1.90;;;9.90;99.90;;;;;;5052564;28;20228;-86
2023/11/17 12:51:26;;;;;;;1.17;0.98;;;10.00;99.90;;;;;;5038235;28;20243;-85
2023/11/17 12:53:53;;;;;;;2.45;1.33;;;9.90;99.90;;;;;;5038150;28;20706;-86
2023/11/17 12:56:22;;;;;;;0.90;0.70;;;10.10;99.90;;;;;;5040864;28;20185;-86
2023/11/17 12:58:48;;;;;;;2.33;2.13;;;10.00;99.90;;;;;;5040465;28;20178;-85
2023/11/17 13:01:19;;;;;;;0.70;0.70;;;10.00;99.90;;;;;;5025212;28;20197;-89